<?xml version="1.0" encoding="utf-8"?>
<gpx xmlns:xsi="http://www.w3.org/2001/XMLSchema-instance" xmlns:xsd="http://www.w3.org/2001/XMLSchema" version="1.1" creator="Shapelink.com" xmlns="http://www.topografix.com/GPX/1/1" xmlns:gpxtpx="http://www.garmin.com/xmlschemas/TrackPointExtension/v1">
  <metadata>
    <name>Ejecutar 10.40 km, 2020-03-01</name>
    <desc></desc>
    <author><name>Per Rooth</name></author> 
    <time>2020-03-01T16:42:27Z</time>
  </metadata>
  <trk>
    <name>Ejecutar 10.40 km, 2020-03-01</name>
    <trkseg>
      <trkpt lat="56.873358891702" lon="14.792858911612">
        <ele>177.6</ele>
        <time>2020-03-01T16:42:27Z</time>
      </trkpt>
      <trkpt lat="56.873333662183" lon="14.792855223576">
        <ele>179</ele>
        <time>2020-03-01T16:42:28Z</time>
      </trkpt>
      <trkpt lat="56.873150601487" lon="14.792860671811">
        <ele>178</ele>
        <time>2020-03-01T16:42:35Z</time>
      </trkpt>
      <trkpt lat="56.873123947045" lon="14.792866203865">
        <ele>177.8</ele>
        <time>2020-03-01T16:42:36Z</time>
      </trkpt>
      <trkpt lat="56.87293409701" lon="14.792935103083">
        <ele>177.8</ele>
        <time>2020-03-01T16:42:44Z</time>
      </trkpt>
      <trkpt lat="56.872756652187" lon="14.792980532981">
        <ele>178.2</ele>
        <time>2020-03-01T16:42:51Z</time>
      </trkpt>
      <trkpt lat="56.872569735817" lon="14.792899899103">
        <ele>178.2</ele>
        <time>2020-03-01T16:43:00Z</time>
      </trkpt>
      <trkpt lat="56.872477451098" lon="14.79289428323">
        <ele>178</ele>
        <time>2020-03-01T16:43:04Z</time>
      </trkpt>
      <trkpt lat="56.872281398457" lon="14.792908197184">
        <ele>177.6</ele>
        <time>2020-03-01T16:43:12Z</time>
      </trkpt>
      <trkpt lat="56.872106216747" lon="14.792984891569">
        <ele>177.8</ele>
        <time>2020-03-01T16:43:19Z</time>
      </trkpt>
      <trkpt lat="56.871978057496" lon="14.793054880434">
        <ele>178</ele>
        <time>2020-03-01T16:43:24Z</time>
      </trkpt>
      <trkpt lat="56.871739508622" lon="14.793149763542">
        <ele>177.6</ele>
        <time>2020-03-01T16:43:31Z</time>
      </trkpt>
      <trkpt lat="56.871530631674" lon="14.793161246745">
        <ele>177.8</ele>
        <time>2020-03-01T16:43:36Z</time>
      </trkpt>
      <trkpt lat="56.871349414996" lon="14.793122773824">
        <ele>177.4</ele>
        <time>2020-03-01T16:43:42Z</time>
      </trkpt>
      <trkpt lat="56.871296525207" lon="14.793106596757">
        <ele>177.2</ele>
        <time>2020-03-01T16:43:44Z</time>
      </trkpt>
      <trkpt lat="56.871214885501" lon="14.793074158804">
        <ele>176.8</ele>
        <time>2020-03-01T16:43:47Z</time>
      </trkpt>
      <trkpt lat="56.871012797892" lon="14.792990591261">
        <ele>176.6</ele>
        <time>2020-03-01T16:43:54Z</time>
      </trkpt>
      <trkpt lat="56.870819259821" lon="14.792903168044">
        <ele>175.8</ele>
        <time>2020-03-01T16:44:02Z</time>
      </trkpt>
      <trkpt lat="56.870632930184" lon="14.792809290764">
        <ele>175.8</ele>
        <time>2020-03-01T16:44:10Z</time>
      </trkpt>
      <trkpt lat="56.870452132601" lon="14.792725890859">
        <ele>174.6</ele>
        <time>2020-03-01T16:44:17Z</time>
      </trkpt>
      <trkpt lat="56.87038348484" lon="14.792676270011">
        <ele>174.2</ele>
        <time>2020-03-01T16:44:20Z</time>
      </trkpt>
      <trkpt lat="56.870193383348" lon="14.792537884842">
        <ele>173.4</ele>
        <time>2020-03-01T16:44:28Z</time>
      </trkpt>
      <trkpt lat="56.870091962358" lon="14.792558001402">
        <ele>173.4</ele>
        <time>2020-03-01T16:44:32Z</time>
      </trkpt>
      <trkpt lat="56.869961791451" lon="14.792822953261">
        <ele>173</ele>
        <time>2020-03-01T16:44:39Z</time>
      </trkpt>
      <trkpt lat="56.869883336867" lon="14.793041050299">
        <ele>172.6</ele>
        <time>2020-03-01T16:44:44Z</time>
      </trkpt>
      <trkpt lat="56.869782670248" lon="14.793337015188">
        <ele>173</ele>
        <time>2020-03-01T16:44:51Z</time>
      </trkpt>
      <trkpt lat="56.869688122416" lon="14.793621161598">
        <ele>172.6</ele>
        <time>2020-03-01T16:44:58Z</time>
      </trkpt>
      <trkpt lat="56.86964671583" lon="14.793751835419">
        <ele>172.4</ele>
        <time>2020-03-01T16:45:01Z</time>
      </trkpt>
      <trkpt lat="56.869604471054" lon="14.793819142076">
        <ele>172.6</ele>
        <time>2020-03-01T16:45:03Z</time>
      </trkpt>
      <trkpt lat="56.869553844378" lon="14.793813526203">
        <ele>172</ele>
        <time>2020-03-01T16:45:05Z</time>
      </trkpt>
      <trkpt lat="56.869424511661" lon="14.793678409975">
        <ele>171.4</ele>
        <time>2020-03-01T16:45:10Z</time>
      </trkpt>
      <trkpt lat="56.869272799271" lon="14.793454277969">
        <ele>170.6</ele>
        <time>2020-03-01T16:45:17Z</time>
      </trkpt>
      <trkpt lat="56.869235332178" lon="14.793400047076">
        <ele>170.4</ele>
        <time>2020-03-01T16:45:19Z</time>
      </trkpt>
      <trkpt lat="56.869214042152" lon="14.793377248308">
        <ele>170.2</ele>
        <time>2020-03-01T16:45:20Z</time>
      </trkpt>
      <trkpt lat="56.869166684417" lon="14.793371967711">
        <ele>169.8</ele>
        <time>2020-03-01T16:45:22Z</time>
      </trkpt>
      <trkpt lat="56.869106753832" lon="14.793712189032">
        <ele>169.6</ele>
        <time>2020-03-01T16:45:29Z</time>
      </trkpt>
      <trkpt lat="56.869049421636" lon="14.794067833049">
        <ele>169.4</ele>
        <time>2020-03-01T16:45:37Z</time>
      </trkpt>
      <trkpt lat="56.86904070446" lon="14.794111838024">
        <ele>169.2</ele>
        <time>2020-03-01T16:45:38Z</time>
      </trkpt>
      <trkpt lat="56.868972056699" lon="14.79443571464">
        <ele>169.8</ele>
        <time>2020-03-01T16:45:45Z</time>
      </trkpt>
      <trkpt lat="56.868905001499" lon="14.794788927906">
        <ele>169</ele>
        <time>2020-03-01T16:45:51Z</time>
      </trkpt>
      <trkpt lat="56.868833503892" lon="14.795093274695">
        <ele>168.4</ele>
        <time>2020-03-01T16:45:57Z</time>
      </trkpt>
      <trkpt lat="56.868802155586" lon="14.795233084787">
        <ele>168.6</ele>
        <time>2020-03-01T16:46:00Z</time>
      </trkpt>
      <trkpt lat="56.868706937202" lon="14.795548244227">
        <ele>168.8</ele>
        <time>2020-03-01T16:46:07Z</time>
      </trkpt>
      <trkpt lat="56.868633930853" lon="14.795864325676">
        <ele>169</ele>
        <time>2020-03-01T16:46:14Z</time>
      </trkpt>
      <trkpt lat="56.868565366911" lon="14.796186274455">
        <ele>169.4</ele>
        <time>2020-03-01T16:46:21Z</time>
      </trkpt>
      <trkpt lat="56.868489343078" lon="14.796502607361">
        <ele>169</ele>
        <time>2020-03-01T16:46:28Z</time>
      </trkpt>
      <trkpt lat="56.868420779136" lon="14.79684383451">
        <ele>169.4</ele>
        <time>2020-03-01T16:46:35Z</time>
      </trkpt>
      <trkpt lat="56.868391777762" lon="14.796985740077">
        <ele>169</ele>
        <time>2020-03-01T16:46:38Z</time>
      </trkpt>
      <trkpt lat="56.86831567011" lon="14.797307772675">
        <ele>168.6</ele>
        <time>2020-03-01T16:46:45Z</time>
      </trkpt>
      <trkpt lat="56.868247106168" lon="14.797653861326">
        <ele>168.6</ele>
        <time>2020-03-01T16:46:52Z</time>
      </trkpt>
      <trkpt lat="56.868191198895" lon="14.797970864784">
        <ele>169</ele>
        <time>2020-03-01T16:46:58Z</time>
      </trkpt>
      <trkpt lat="56.868168567765" lon="14.798296920694">
        <ele>168.8</ele>
        <time>2020-03-01T16:47:05Z</time>
      </trkpt>
      <trkpt lat="56.868141578047" lon="14.798623814794">
        <ele>168.8</ele>
        <time>2020-03-01T16:47:12Z</time>
      </trkpt>
      <trkpt lat="56.868099081814" lon="14.798983230666">
        <ele>168.4</ele>
        <time>2020-03-01T16:47:19Z</time>
      </trkpt>
      <trkpt lat="56.86807594777" lon="14.799340551063">
        <ele>168.6</ele>
        <time>2020-03-01T16:47:26Z</time>
      </trkpt>
      <trkpt lat="56.868077456512" lon="14.799390507187">
        <ele>168.4</ele>
        <time>2020-03-01T16:47:27Z</time>
      </trkpt>
      <trkpt lat="56.868098746538" lon="14.799619752152">
        <ele>168.2</ele>
        <time>2020-03-01T16:47:32Z</time>
      </trkpt>
      <trkpt lat="56.868175021828" lon="14.799947065347">
        <ele>168.2</ele>
        <time>2020-03-01T16:47:39Z</time>
      </trkpt>
      <trkpt lat="56.868285746727" lon="14.800225260608">
        <ele>167.8</ele>
        <time>2020-03-01T16:47:45Z</time>
      </trkpt>
      <trkpt lat="56.868320950707" lon="14.800543102256">
        <ele>168.2</ele>
        <time>2020-03-01T16:47:51Z</time>
      </trkpt>
      <trkpt lat="56.868309970418" lon="14.800885419052">
        <ele>168.2</ele>
        <time>2020-03-01T16:47:56Z</time>
      </trkpt>
      <trkpt lat="56.868179380416" lon="14.801156573517">
        <ele>168</ele>
        <time>2020-03-01T16:48:02Z</time>
      </trkpt>
      <trkpt lat="56.868038396858" lon="14.801358577307">
        <ele>168</ele>
        <time>2020-03-01T16:48:08Z</time>
      </trkpt>
      <trkpt lat="56.867866987003" lon="14.80152847842">
        <ele>167.8</ele>
        <time>2020-03-01T16:48:15Z</time>
      </trkpt>
      <trkpt lat="56.867690128913" lon="14.801696451696">
        <ele>168</ele>
        <time>2020-03-01T16:48:22Z</time>
      </trkpt>
      <trkpt lat="56.867508744597" lon="14.801832154657">
        <ele>168.6</ele>
        <time>2020-03-01T16:48:29Z</time>
      </trkpt>
      <trkpt lat="56.867332221783" lon="14.801950507085">
        <ele>168.4</ele>
        <time>2020-03-01T16:48:36Z</time>
      </trkpt>
      <trkpt lat="56.86718076085" lon="14.802035499551">
        <ele>168.6</ele>
        <time>2020-03-01T16:48:42Z</time>
      </trkpt>
      <trkpt lat="56.86699300629" lon="14.802132897229">
        <ele>168.6</ele>
        <time>2020-03-01T16:48:49Z</time>
      </trkpt>
      <trkpt lat="56.866802234246" lon="14.802251249657">
        <ele>168.6</ele>
        <time>2020-03-01T16:48:56Z</time>
      </trkpt>
      <trkpt lat="56.866661753602" lon="14.802458953139">
        <ele>168.8</ele>
        <time>2020-03-01T16:49:01Z</time>
      </trkpt>
      <trkpt lat="56.866551783074" lon="14.802752906372">
        <ele>168.2</ele>
        <time>2020-03-01T16:49:07Z</time>
      </trkpt>
      <trkpt lat="56.866467712617" lon="14.803103688887">
        <ele>168.6</ele>
        <time>2020-03-01T16:49:14Z</time>
      </trkpt>
      <trkpt lat="56.866434101198" lon="14.803440473629">
        <ele>168.6</ele>
        <time>2020-03-01T16:49:20Z</time>
      </trkpt>
      <trkpt lat="56.866400238322" lon="14.803765942806">
        <ele>168.4</ele>
        <time>2020-03-01T16:49:26Z</time>
      </trkpt>
      <trkpt lat="56.866392610793" lon="14.803923857802">
        <ele>168.4</ele>
        <time>2020-03-01T16:49:29Z</time>
      </trkpt>
      <trkpt lat="56.866338882814" lon="14.804242956735">
        <ele>168.2</ele>
        <time>2020-03-01T16:49:35Z</time>
      </trkpt>
      <trkpt lat="56.866166802407" lon="14.804301378578">
        <ele>167.4</ele>
        <time>2020-03-01T16:49:42Z</time>
      </trkpt>
      <trkpt lat="56.8661204505" lon="14.804290565927">
        <ele>167.4</ele>
        <time>2020-03-01T16:49:44Z</time>
      </trkpt>
      <trkpt lat="56.86606596815" lon="14.804249746074">
        <ele>167.8</ele>
        <time>2020-03-01T16:49:47Z</time>
      </trkpt>
      <trkpt lat="56.865895899399" lon="14.804051681777">
        <ele>167.4</ele>
        <time>2020-03-01T16:49:55Z</time>
      </trkpt>
      <trkpt lat="56.86579439459" lon="14.803960486705">
        <ele>167.4</ele>
        <time>2020-03-01T16:50:00Z</time>
      </trkpt>
      <trkpt lat="56.865691967772" lon="14.803829477608">
        <ele>167.2</ele>
        <time>2020-03-01T16:50:06Z</time>
      </trkpt>
      <trkpt lat="56.865517624252" lon="14.803659325038">
        <ele>166.8</ele>
        <time>2020-03-01T16:50:14Z</time>
      </trkpt>
      <trkpt lat="56.865287541097" lon="14.803630910397">
        <ele>166.8</ele>
        <time>2020-03-01T16:50:20Z</time>
      </trkpt>
      <trkpt lat="56.865068857326" lon="14.803609117457">
        <ele>166.8</ele>
        <time>2020-03-01T16:50:25Z</time>
      </trkpt>
      <trkpt lat="56.864886048087" lon="14.803571315088">
        <ele>166.8</ele>
        <time>2020-03-01T16:50:31Z</time>
      </trkpt>
      <trkpt lat="56.864692258559" lon="14.803571901821">
        <ele>166.8</ele>
        <time>2020-03-01T16:50:37Z</time>
      </trkpt>
      <trkpt lat="56.864509365501" lon="14.803607273439">
        <ele>167</ele>
        <time>2020-03-01T16:50:42Z</time>
      </trkpt>
      <trkpt lat="56.864318593457" lon="14.803642309781">
        <ele>167.2</ele>
        <time>2020-03-01T16:50:48Z</time>
      </trkpt>
      <trkpt lat="56.864126228852" lon="14.803683967824">
        <ele>166.4</ele>
        <time>2020-03-01T16:50:55Z</time>
      </trkpt>
      <trkpt lat="56.863925147071" lon="14.803753956689">
        <ele>167.2</ele>
        <time>2020-03-01T16:51:02Z</time>
      </trkpt>
      <trkpt lat="56.863746193506" lon="14.803913883341">
        <ele>167.2</ele>
        <time>2020-03-01T16:51:07Z</time>
      </trkpt>
      <trkpt lat="56.863591715089" lon="14.804166429988">
        <ele>168</ele>
        <time>2020-03-01T16:51:13Z</time>
      </trkpt>
      <trkpt lat="56.863547793933" lon="14.804254775214">
        <ele>168.2</ele>
        <time>2020-03-01T16:51:15Z</time>
      </trkpt>
      <trkpt lat="56.863400859226" lon="14.804524923851">
        <ele>168.2</ele>
        <time>2020-03-01T16:51:21Z</time>
      </trkpt>
      <trkpt lat="56.86326892812" lon="14.80478484657">
        <ele>167.8</ele>
        <time>2020-03-01T16:51:27Z</time>
      </trkpt>
      <trkpt lat="56.863156778298" lon="14.805042841452">
        <ele>167.8</ele>
        <time>2020-03-01T16:51:32Z</time>
      </trkpt>
      <trkpt lat="56.863035576024" lon="14.805344589852">
        <ele>167.4</ele>
        <time>2020-03-01T16:51:38Z</time>
      </trkpt>
      <trkpt lat="56.862922001279" lon="14.80564063856">
        <ele>167.4</ele>
        <time>2020-03-01T16:51:44Z</time>
      </trkpt>
      <trkpt lat="56.86278780706" lon="14.805912128301">
        <ele>167.6</ele>
        <time>2020-03-01T16:51:50Z</time>
      </trkpt>
      <trkpt lat="56.862669873727" lon="14.806177583074">
        <ele>167</ele>
        <time>2020-03-01T16:51:56Z</time>
      </trkpt>
      <trkpt lat="56.862522352287" lon="14.806446725883">
        <ele>167</ele>
        <time>2020-03-01T16:52:03Z</time>
      </trkpt>
      <trkpt lat="56.862407436438" lon="14.806738332184">
        <ele>167.8</ele>
        <time>2020-03-01T16:52:09Z</time>
      </trkpt>
      <trkpt lat="56.862371310449" lon="14.806847045427">
        <ele>168</ele>
        <time>2020-03-01T16:52:11Z</time>
      </trkpt>
      <trkpt lat="56.862257819523" lon="14.807117026426">
        <ele>167.2</ele>
        <time>2020-03-01T16:52:17Z</time>
      </trkpt>
      <trkpt lat="56.862105688038" lon="14.807343505364">
        <ele>167.6</ele>
        <time>2020-03-01T16:52:24Z</time>
      </trkpt>
      <trkpt lat="56.861960597349" lon="14.807549700104">
        <ele>167.6</ele>
        <time>2020-03-01T16:52:30Z</time>
      </trkpt>
      <trkpt lat="56.861833611564" lon="14.807784393304">
        <ele>167.6</ele>
        <time>2020-03-01T16:52:36Z</time>
      </trkpt>
      <trkpt lat="56.861710565272" lon="14.808033838648">
        <ele>167.6</ele>
        <time>2020-03-01T16:52:42Z</time>
      </trkpt>
      <trkpt lat="56.861594140681" lon="14.80831697923">
        <ele>167.6</ele>
        <time>2020-03-01T16:52:49Z</time>
      </trkpt>
      <trkpt lat="56.86151459645" lon="14.808616045422">
        <ele>167.6</ele>
        <time>2020-03-01T16:52:55Z</time>
      </trkpt>
      <trkpt lat="56.861491462406" lon="14.808709755064">
        <ele>167.4</ele>
        <time>2020-03-01T16:52:57Z</time>
      </trkpt>
      <trkpt lat="56.861391717796" lon="14.809009156532">
        <ele>167.8</ele>
        <time>2020-03-01T16:53:03Z</time>
      </trkpt>
      <trkpt lat="56.861286524951" lon="14.809301936299">
        <ele>167.8</ele>
        <time>2020-03-01T16:53:09Z</time>
      </trkpt>
      <trkpt lat="56.861243190528" lon="14.809498408035">
        <ele>167</ele>
        <time>2020-03-01T16:53:13Z</time>
      </trkpt>
      <trkpt lat="56.861174878043" lon="14.809818512796">
        <ele>167.2</ele>
        <time>2020-03-01T16:53:19Z</time>
      </trkpt>
      <trkpt lat="56.861110840327" lon="14.810164852904">
        <ele>167.2</ele>
        <time>2020-03-01T16:53:26Z</time>
      </trkpt>
      <trkpt lat="56.861073289415" lon="14.810507924071">
        <ele>167.2</ele>
        <time>2020-03-01T16:53:33Z</time>
      </trkpt>
      <trkpt lat="56.861059878375" lon="14.81089357529">
        <ele>166.8</ele>
        <time>2020-03-01T16:53:40Z</time>
      </trkpt>
      <trkpt lat="56.861066080981" lon="14.811229438023">
        <ele>166.6</ele>
        <time>2020-03-01T16:53:46Z</time>
      </trkpt>
      <trkpt lat="56.861136237484" lon="14.811587931886">
        <ele>167.2</ele>
        <time>2020-03-01T16:53:52Z</time>
      </trkpt>
      <trkpt lat="56.861262636536" lon="14.811905773534">
        <ele>166.8</ele>
        <time>2020-03-01T16:53:58Z</time>
      </trkpt>
      <trkpt lat="56.861380234593" lon="14.81222043006">
        <ele>166.8</ele>
        <time>2020-03-01T16:54:04Z</time>
      </trkpt>
      <trkpt lat="56.861505292541" lon="14.812486806842">
        <ele>167.2</ele>
        <time>2020-03-01T16:54:10Z</time>
      </trkpt>
      <trkpt lat="56.861655747646" lon="14.812727786467">
        <ele>168</ele>
        <time>2020-03-01T16:54:17Z</time>
      </trkpt>
      <trkpt lat="56.86181299209" lon="14.812936663415">
        <ele>168.2</ele>
        <time>2020-03-01T16:54:24Z</time>
      </trkpt>
      <trkpt lat="56.861977025873" lon="14.813127016364">
        <ele>168.2</ele>
        <time>2020-03-01T16:54:30Z</time>
      </trkpt>
      <trkpt lat="56.862130079367" lon="14.813333378742">
        <ele>168.8</ele>
        <time>2020-03-01T16:54:36Z</time>
      </trkpt>
      <trkpt lat="56.862180035491" lon="14.813394315155">
        <ele>169.2</ele>
        <time>2020-03-01T16:54:38Z</time>
      </trkpt>
      <trkpt lat="56.862354043735" lon="14.813466902409">
        <ele>168.8</ele>
        <time>2020-03-01T16:54:44Z</time>
      </trkpt>
      <trkpt lat="56.862557891543" lon="14.813551224323">
        <ele>168.2</ele>
        <time>2020-03-01T16:54:51Z</time>
      </trkpt>
      <trkpt lat="56.86272075186" lon="14.813702936713">
        <ele>168.2</ele>
        <time>2020-03-01T16:54:56Z</time>
      </trkpt>
      <trkpt lat="56.86287246425" lon="14.813917261896">
        <ele>168.6</ele>
        <time>2020-03-01T16:55:01Z</time>
      </trkpt>
      <trkpt lat="56.862945051504" lon="14.814271816266">
        <ele>168.4</ele>
        <time>2020-03-01T16:55:07Z</time>
      </trkpt>
      <trkpt lat="56.8629185647" lon="14.81464028459">
        <ele>168.8</ele>
        <time>2020-03-01T16:55:13Z</time>
      </trkpt>
      <trkpt lat="56.862890820611" lon="14.814758050285">
        <ele>169.2</ele>
        <time>2020-03-01T16:55:15Z</time>
      </trkpt>
      <trkpt lat="56.862809767638" lon="14.81491269634">
        <ele>168</ele>
        <time>2020-03-01T16:55:19Z</time>
      </trkpt>
      <trkpt lat="56.86266626951" lon="14.815172786697">
        <ele>167.6</ele>
        <time>2020-03-01T16:55:27Z</time>
      </trkpt>
      <trkpt lat="56.862511623455" lon="14.815400858196">
        <ele>167.6</ele>
        <time>2020-03-01T16:55:35Z</time>
      </trkpt>
      <trkpt lat="56.862361755083" lon="14.815592803706">
        <ele>167.8</ele>
        <time>2020-03-01T16:55:41Z</time>
      </trkpt>
      <trkpt lat="56.862204343001" lon="14.815790029813">
        <ele>167.4</ele>
        <time>2020-03-01T16:55:46Z</time>
      </trkpt>
      <trkpt lat="56.862042823788" lon="14.816018352769">
        <ele>167.6</ele>
        <time>2020-03-01T16:55:51Z</time>
      </trkpt>
      <trkpt lat="56.86189932566" lon="14.816269306855">
        <ele>167.4</ele>
        <time>2020-03-01T16:55:58Z</time>
      </trkpt>
      <trkpt lat="56.861820368162" lon="14.816380953763">
        <ele>167</ele>
        <time>2020-03-01T16:56:01Z</time>
      </trkpt>
      <trkpt lat="56.861728418719" lon="14.816561918984">
        <ele>167.4</ele>
        <time>2020-03-01T16:56:05Z</time>
      </trkpt>
      <trkpt lat="56.861699333526" lon="14.816749841182">
        <ele>168</ele>
        <time>2020-03-01T16:56:08Z</time>
      </trkpt>
      <trkpt lat="56.861708134521" lon="14.816811699604">
        <ele>168</ele>
        <time>2020-03-01T16:56:09Z</time>
      </trkpt>
      <trkpt lat="56.861781224689" lon="14.817114453832">
        <ele>167.8</ele>
        <time>2020-03-01T16:56:14Z</time>
      </trkpt>
      <trkpt lat="56.861871246295" lon="14.817421901924">
        <ele>167.4</ele>
        <time>2020-03-01T16:56:19Z</time>
      </trkpt>
      <trkpt lat="56.861912401424" lon="14.817752232603">
        <ele>167.2</ele>
        <time>2020-03-01T16:56:24Z</time>
      </trkpt>
      <trkpt lat="56.861918855487" lon="14.817814007206">
        <ele>167</ele>
        <time>2020-03-01T16:56:25Z</time>
      </trkpt>
      <trkpt lat="56.861989766361" lon="14.81812799318">
        <ele>167</ele>
        <time>2020-03-01T16:56:31Z</time>
      </trkpt>
      <trkpt lat="56.862068053307" lon="14.818491600002">
        <ele>167</ele>
        <time>2020-03-01T16:56:38Z</time>
      </trkpt>
      <trkpt lat="56.862057240656" lon="14.818658148355">
        <ele>168</ele>
        <time>2020-03-01T16:56:41Z</time>
      </trkpt>
      <trkpt lat="56.862043997254" lon="14.81868455134">
        <ele>168.2</ele>
        <time>2020-03-01T16:56:42Z</time>
      </trkpt>
      <trkpt lat="56.862006111066" lon="14.818732579627">
        <ele>168.2</ele>
        <time>2020-03-01T16:56:44Z</time>
      </trkpt>
      <trkpt lat="56.861882813317" lon="14.818780021181">
        <ele>167</ele>
        <time>2020-03-01T16:56:48Z</time>
      </trkpt>
      <trkpt lat="56.861760521396" lon="14.818904743853">
        <ele>168.2</ele>
        <time>2020-03-01T16:56:53Z</time>
      </trkpt>
      <trkpt lat="56.861579639994" lon="14.819076405165">
        <ele>167.8</ele>
        <time>2020-03-01T16:56:59Z</time>
      </trkpt>
      <trkpt lat="56.861563462927" lon="14.819134910827">
        <ele>168</ele>
        <time>2020-03-01T16:57:00Z</time>
      </trkpt>
      <trkpt lat="56.861550051887" lon="14.819465576782">
        <ele>168.8</ele>
        <time>2020-03-01T16:57:05Z</time>
      </trkpt>
      <trkpt lat="56.861566228954" lon="14.819826920491">
        <ele>167.6</ele>
        <time>2020-03-01T16:57:10Z</time>
      </trkpt>
      <trkpt lat="56.861573521207" lon="14.819944015634">
        <ele>167.2</ele>
        <time>2020-03-01T16:57:12Z</time>
      </trkpt>
      <trkpt lat="56.861587938075" lon="14.820316088175">
        <ele>166.8</ele>
        <time>2020-03-01T16:57:19Z</time>
      </trkpt>
      <trkpt lat="56.861619202562" lon="14.820639461877">
        <ele>166.6</ele>
        <time>2020-03-01T16:57:23Z</time>
      </trkpt>
      <trkpt lat="56.861731855298" lon="14.820934840033">
        <ele>167.6</ele>
        <time>2020-03-01T16:57:28Z</time>
      </trkpt>
      <trkpt lat="56.861750798392" lon="14.821036931575">
        <ele>167.8</ele>
        <time>2020-03-01T16:57:30Z</time>
      </trkpt>
      <trkpt lat="56.861647198108" lon="14.8213114388">
        <ele>167.4</ele>
        <time>2020-03-01T16:57:36Z</time>
      </trkpt>
      <trkpt lat="56.861518116848" lon="14.821544036525">
        <ele>166.8</ele>
        <time>2020-03-01T16:57:43Z</time>
      </trkpt>
      <trkpt lat="56.861419797161" lon="14.82165425851">
        <ele>167</ele>
        <time>2020-03-01T16:57:47Z</time>
      </trkpt>
      <trkpt lat="56.861265402563" lon="14.821900602551">
        <ele>167.8</ele>
        <time>2020-03-01T16:57:54Z</time>
      </trkpt>
      <trkpt lat="56.861131208344" lon="14.82210688111">
        <ele>166.4</ele>
        <time>2020-03-01T16:57:58Z</time>
      </trkpt>
      <trkpt lat="56.861007323862" lon="14.822428410794">
        <ele>166.6</ele>
        <time>2020-03-01T16:58:04Z</time>
      </trkpt>
      <trkpt lat="56.860860389155" lon="14.822685064572">
        <ele>168.2</ele>
        <time>2020-03-01T16:58:10Z</time>
      </trkpt>
      <trkpt lat="56.860765422228" lon="14.822767961563">
        <ele>168.2</ele>
        <time>2020-03-01T16:58:13Z</time>
      </trkpt>
      <trkpt lat="56.860760057812" lon="14.823134334412">
        <ele>168.2</ele>
        <time>2020-03-01T16:58:19Z</time>
      </trkpt>
      <trkpt lat="56.860672466957" lon="14.823455193544">
        <ele>168</ele>
        <time>2020-03-01T16:58:25Z</time>
      </trkpt>
      <trkpt lat="56.860508600812" lon="14.823685444337">
        <ele>167.6</ele>
        <time>2020-03-01T16:58:32Z</time>
      </trkpt>
      <trkpt lat="56.860427380201" lon="14.82377990835">
        <ele>167.2</ele>
        <time>2020-03-01T16:58:35Z</time>
      </trkpt>
      <trkpt lat="56.860250857387" lon="14.823978307923">
        <ele>167.8</ele>
        <time>2020-03-01T16:58:42Z</time>
      </trkpt>
      <trkpt lat="56.860070897994" lon="14.824148544312">
        <ele>167.6</ele>
        <time>2020-03-01T16:58:48Z</time>
      </trkpt>
      <trkpt lat="56.859876437914" lon="14.824254156252">
        <ele>167.4</ele>
        <time>2020-03-01T16:58:54Z</time>
      </trkpt>
      <trkpt lat="56.859701759118" lon="14.824367060445">
        <ele>167.2</ele>
        <time>2020-03-01T16:59:00Z</time>
      </trkpt>
      <trkpt lat="56.859520123345" lon="14.824496225524">
        <ele>167.6</ele>
        <time>2020-03-01T16:59:06Z</time>
      </trkpt>
      <trkpt lat="56.85935877177" lon="14.824721866272">
        <ele>167.4</ele>
        <time>2020-03-01T16:59:12Z</time>
      </trkpt>
      <trkpt lat="56.8592556744" lon="14.8249910929">
        <ele>167.6</ele>
        <time>2020-03-01T16:59:17Z</time>
      </trkpt>
      <trkpt lat="56.859164563147" lon="14.825349670582">
        <ele>167.2</ele>
        <time>2020-03-01T16:59:23Z</time>
      </trkpt>
      <trkpt lat="56.859103542915" lon="14.825659214149">
        <ele>167.4</ele>
        <time>2020-03-01T16:59:28Z</time>
      </trkpt>
      <trkpt lat="56.859036990629" lon="14.826025838455">
        <ele>166.8</ele>
        <time>2020-03-01T16:59:34Z</time>
      </trkpt>
      <trkpt lat="56.858960966796" lon="14.826373771124">
        <ele>166.8</ele>
        <time>2020-03-01T16:59:40Z</time>
      </trkpt>
      <trkpt lat="56.858873962674" lon="14.826682895596">
        <ele>167.6</ele>
        <time>2020-03-01T16:59:46Z</time>
      </trkpt>
      <trkpt lat="56.858777319367" lon="14.826987745299">
        <ele>167</ele>
        <time>2020-03-01T16:59:52Z</time>
      </trkpt>
      <trkpt lat="56.85868989615" lon="14.827307095689">
        <ele>168</ele>
        <time>2020-03-01T16:59:58Z</time>
      </trkpt>
      <trkpt lat="56.858612698851" lon="14.827639940938">
        <ele>167.6</ele>
        <time>2020-03-01T17:00:04Z</time>
      </trkpt>
      <trkpt lat="56.858536423561" lon="14.827974462567">
        <ele>167.4</ele>
        <time>2020-03-01T17:00:10Z</time>
      </trkpt>
      <trkpt lat="56.858464171583" lon="14.828314180974">
        <ele>167</ele>
        <time>2020-03-01T17:00:16Z</time>
      </trkpt>
      <trkpt lat="56.858384962628" lon="14.828649121698">
        <ele>167</ele>
        <time>2020-03-01T17:00:22Z</time>
      </trkpt>
      <trkpt lat="56.858319499989" lon="14.82900769938">
        <ele>167.8</ele>
        <time>2020-03-01T17:00:28Z</time>
      </trkpt>
      <trkpt lat="56.858268035123" lon="14.829368707813">
        <ele>167.4</ele>
        <time>2020-03-01T17:00:34Z</time>
      </trkpt>
      <trkpt lat="56.858210032375" lon="14.829708761496">
        <ele>168</ele>
        <time>2020-03-01T17:00:40Z</time>
      </trkpt>
      <trkpt lat="56.858142390442" lon="14.830032889569">
        <ele>168</ele>
        <time>2020-03-01T17:00:46Z</time>
      </trkpt>
      <trkpt lat="56.858114730172" lon="14.830136322215">
        <ele>168.2</ele>
        <time>2020-03-01T17:00:48Z</time>
      </trkpt>
      <trkpt lat="56.858055637777" lon="14.830307229156">
        <ele>169.4</ele>
        <time>2020-03-01T17:00:52Z</time>
      </trkpt>
      <trkpt lat="56.858007441852" lon="14.830456594614">
        <ele>170.6</ele>
        <time>2020-03-01T17:00:56Z</time>
      </trkpt>
      <trkpt lat="56.857953210959" lon="14.830634207075">
        <ele>171.6</ele>
        <time>2020-03-01T17:01:00Z</time>
      </trkpt>
      <trkpt lat="56.857882467723" lon="14.830735879522">
        <ele>172.8</ele>
        <time>2020-03-01T17:01:03Z</time>
      </trkpt>
      <trkpt lat="56.857699574665" lon="14.830768066018">
        <ele>172.8</ele>
        <time>2020-03-01T17:01:09Z</time>
      </trkpt>
      <trkpt lat="56.857495559219" lon="14.83073437078">
        <ele>173.4</ele>
        <time>2020-03-01T17:01:16Z</time>
      </trkpt>
      <trkpt lat="56.857445603095" lon="14.830750464028">
        <ele>174</ele>
        <time>2020-03-01T17:01:18Z</time>
      </trkpt>
      <trkpt lat="56.857428001105" lon="14.830840485634">
        <ele>174.2</ele>
        <time>2020-03-01T17:01:20Z</time>
      </trkpt>
      <trkpt lat="56.857475023564" lon="14.831217084401">
        <ele>173.6</ele>
        <time>2020-03-01T17:01:26Z</time>
      </trkpt>
      <trkpt lat="56.857477957229" lon="14.831537105343">
        <ele>173</ele>
        <time>2020-03-01T17:01:31Z</time>
      </trkpt>
      <trkpt lat="56.857574600536" lon="14.831860395226">
        <ele>172.2</ele>
        <time>2020-03-01T17:01:37Z</time>
      </trkpt>
      <trkpt lat="56.857611229439" lon="14.831960391293">
        <ele>171.8</ele>
        <time>2020-03-01T17:01:39Z</time>
      </trkpt>
      <trkpt lat="56.857701167226" lon="14.832149151681">
        <ele>170.8</ele>
        <time>2020-03-01T17:01:42Z</time>
      </trkpt>
      <trkpt lat="56.85782656045" lon="14.832322405554">
        <ele>169.8</ele>
        <time>2020-03-01T17:01:46Z</time>
      </trkpt>
      <trkpt lat="56.857977853745" lon="14.832569587785">
        <ele>168.8</ele>
        <time>2020-03-01T17:01:51Z</time>
      </trkpt>
      <trkpt lat="56.8580402989" lon="14.832736471414">
        <ele>167.6</ele>
        <time>2020-03-01T17:01:54Z</time>
      </trkpt>
      <trkpt lat="56.858157729319" lon="14.833048361913">
        <ele>168.2</ele>
        <time>2020-03-01T17:02:00Z</time>
      </trkpt>
      <trkpt lat="56.858285385656" lon="14.833354720358">
        <ele>167.8</ele>
        <time>2020-03-01T17:02:06Z</time>
      </trkpt>
      <trkpt lat="56.858420418065" lon="14.833647667763">
        <ele>167.4</ele>
        <time>2020-03-01T17:02:12Z</time>
      </trkpt>
      <trkpt lat="56.858497363907" lon="14.833952098371">
        <ele>167.2</ele>
        <time>2020-03-01T17:02:17Z</time>
      </trkpt>
      <trkpt lat="56.858593755757" lon="14.834282680507">
        <ele>167</ele>
        <time>2020-03-01T17:02:23Z</time>
      </trkpt>
      <trkpt lat="56.85869492529" lon="14.834621812181">
        <ele>167.4</ele>
        <time>2020-03-01T17:02:29Z</time>
      </trkpt>
      <trkpt lat="56.858792825882" lon="14.834898917795">
        <ele>167.4</ele>
        <time>2020-03-01T17:02:34Z</time>
      </trkpt>
      <trkpt lat="56.858899276012" lon="14.835241402229">
        <ele>167</ele>
        <time>2020-03-01T17:02:40Z</time>
      </trkpt>
      <trkpt lat="56.858984603754" lon="14.835551113434">
        <ele>166.8</ele>
        <time>2020-03-01T17:02:45Z</time>
      </trkpt>
      <trkpt lat="56.859024082503" lon="14.835661670695">
        <ele>166.4</ele>
        <time>2020-03-01T17:02:47Z</time>
      </trkpt>
      <trkpt lat="56.859142351112" lon="14.83597808742">
        <ele>166.8</ele>
        <time>2020-03-01T17:02:53Z</time>
      </trkpt>
      <trkpt lat="56.859251148174" lon="14.836288552996">
        <ele>167.2</ele>
        <time>2020-03-01T17:02:59Z</time>
      </trkpt>
      <trkpt lat="56.859355754286" lon="14.836615028001">
        <ele>166.2</ele>
        <time>2020-03-01T17:03:05Z</time>
      </trkpt>
      <trkpt lat="56.859459103113" lon="14.836918201324">
        <ele>166.4</ele>
        <time>2020-03-01T17:03:11Z</time>
      </trkpt>
      <trkpt lat="56.859572174944" lon="14.837216010231">
        <ele>166.2</ele>
        <time>2020-03-01T17:03:17Z</time>
      </trkpt>
      <trkpt lat="56.859702597308" lon="14.837446093386">
        <ele>166.8</ele>
        <time>2020-03-01T17:03:23Z</time>
      </trkpt>
      <trkpt lat="56.859820195365" lon="14.837522452495">
        <ele>167.6</ele>
        <time>2020-03-01T17:03:27Z</time>
      </trkpt>
      <trkpt lat="56.860013230522" lon="14.837553214068">
        <ele>166.8</ele>
        <time>2020-03-01T17:03:33Z</time>
      </trkpt>
      <trkpt lat="56.860213138837" lon="14.837520105563">
        <ele>166.6</ele>
        <time>2020-03-01T17:03:40Z</time>
      </trkpt>
      <trkpt lat="56.860269465205" lon="14.837514070595">
        <ele>166.4</ele>
        <time>2020-03-01T17:03:42Z</time>
      </trkpt>
      <trkpt lat="56.860463087095" lon="14.837415499451">
        <ele>167.6</ele>
        <time>2020-03-01T17:03:49Z</time>
      </trkpt>
      <trkpt lat="56.860563334619" lon="14.837331428994">
        <ele>169</ele>
        <time>2020-03-01T17:03:53Z</time>
      </trkpt>
      <trkpt lat="56.860743126374" lon="14.837142920063">
        <ele>169.4</ele>
        <time>2020-03-01T17:03:59Z</time>
      </trkpt>
      <trkpt lat="56.860933898418" lon="14.837036302295">
        <ele>169.4</ele>
        <time>2020-03-01T17:04:06Z</time>
      </trkpt>
      <trkpt lat="56.861102793703" lon="14.837145434633">
        <ele>169.2</ele>
        <time>2020-03-01T17:04:11Z</time>
      </trkpt>
      <trkpt lat="56.861286692589" lon="14.837208047426">
        <ele>169.2</ele>
        <time>2020-03-01T17:04:15Z</time>
      </trkpt>
      <trkpt lat="56.861495485718" lon="14.837211735462">
        <ele>168.2</ele>
        <time>2020-03-01T17:04:21Z</time>
      </trkpt>
      <trkpt lat="56.861547034403" lon="14.837189858703">
        <ele>168</ele>
        <time>2020-03-01T17:04:23Z</time>
      </trkpt>
      <trkpt lat="56.861749122012" lon="14.837220285">
        <ele>167.2</ele>
        <time>2020-03-01T17:04:29Z</time>
      </trkpt>
      <trkpt lat="56.861783320164" lon="14.837247777632">
        <ele>166.8</ele>
        <time>2020-03-01T17:04:30Z</time>
      </trkpt>
      <trkpt lat="56.861965207394" lon="14.837342325464">
        <ele>165.8</ele>
        <time>2020-03-01T17:04:35Z</time>
      </trkpt>
      <trkpt lat="56.862152542859" lon="14.837397478366">
        <ele>167</ele>
        <time>2020-03-01T17:04:40Z</time>
      </trkpt>
      <trkpt lat="56.862360246341" lon="14.837375433969">
        <ele>166.8</ele>
        <time>2020-03-01T17:04:46Z</time>
      </trkpt>
      <trkpt lat="56.862536098603" lon="14.837285077087">
        <ele>166.4</ele>
        <time>2020-03-01T17:04:51Z</time>
      </trkpt>
      <trkpt lat="56.862707508458" lon="14.837143087701">
        <ele>165.8</ele>
        <time>2020-03-01T17:04:56Z</time>
      </trkpt>
      <trkpt lat="56.862860310495" lon="14.836951058372">
        <ele>166.4</ele>
        <time>2020-03-01T17:05:01Z</time>
      </trkpt>
      <trkpt lat="56.863004562994" lon="14.836726674909">
        <ele>166.2</ele>
        <time>2020-03-01T17:05:07Z</time>
      </trkpt>
      <trkpt lat="56.863151916796" lon="14.836487036388">
        <ele>166.2</ele>
        <time>2020-03-01T17:05:13Z</time>
      </trkpt>
      <trkpt lat="56.863331708551" lon="14.836296767258">
        <ele>166</ele>
        <time>2020-03-01T17:05:19Z</time>
      </trkpt>
      <trkpt lat="56.863510997392" lon="14.836093673821">
        <ele>166.6</ele>
        <time>2020-03-01T17:05:25Z</time>
      </trkpt>
      <trkpt lat="56.863664469981" lon="14.835920839043">
        <ele>166.6</ele>
        <time>2020-03-01T17:05:30Z</time>
      </trkpt>
      <trkpt lat="56.863839232596" lon="14.835718164701">
        <ele>166.4</ele>
        <time>2020-03-01T17:05:36Z</time>
      </trkpt>
      <trkpt lat="56.863988681873" lon="14.83549277541">
        <ele>166.2</ele>
        <time>2020-03-01T17:05:42Z</time>
      </trkpt>
      <trkpt lat="56.864138382607" lon="14.835234445252">
        <ele>165.8</ele>
        <time>2020-03-01T17:05:48Z</time>
      </trkpt>
      <trkpt lat="56.864164366497" lon="14.835190524096">
        <ele>165.6</ele>
        <time>2020-03-01T17:05:49Z</time>
      </trkpt>
      <trkpt lat="56.864309289548" lon="14.834919788726">
        <ele>165.8</ele>
        <time>2020-03-01T17:05:55Z</time>
      </trkpt>
      <trkpt lat="56.8644356886" lon="14.834673277047">
        <ele>165.8</ele>
        <time>2020-03-01T17:06:00Z</time>
      </trkpt>
      <trkpt lat="56.864587233352" lon="14.83443330325">
        <ele>166.2</ele>
        <time>2020-03-01T17:06:07Z</time>
      </trkpt>
      <trkpt lat="56.86472654053" lon="14.834206824312">
        <ele>166</ele>
        <time>2020-03-01T17:06:13Z</time>
      </trkpt>
      <trkpt lat="56.864819160525" lon="14.833876242176">
        <ele>166</ele>
        <time>2020-03-01T17:06:19Z</time>
      </trkpt>
      <trkpt lat="56.864904655905" lon="14.833538451606">
        <ele>165.8</ele>
        <time>2020-03-01T17:06:25Z</time>
      </trkpt>
      <trkpt lat="56.864997694995" lon="14.833195380439">
        <ele>165.6</ele>
        <time>2020-03-01T17:06:31Z</time>
      </trkpt>
      <trkpt lat="56.865101965831" lon="14.832875191859">
        <ele>165.8</ele>
        <time>2020-03-01T17:06:37Z</time>
      </trkpt>
      <trkpt lat="56.865216797861" lon="14.832591129268">
        <ele>165.2</ele>
        <time>2020-03-01T17:06:43Z</time>
      </trkpt>
      <trkpt lat="56.865289888029" lon="14.83224059821">
        <ele>165.8</ele>
        <time>2020-03-01T17:06:49Z</time>
      </trkpt>
      <trkpt lat="56.865304556354" lon="14.831894006645">
        <ele>165</ele>
        <time>2020-03-01T17:06:55Z</time>
      </trkpt>
      <trkpt lat="56.865275303523" lon="14.831629976795">
        <ele>164.4</ele>
        <time>2020-03-01T17:07:01Z</time>
      </trkpt>
      <trkpt lat="56.865147814824" lon="14.831305345808">
        <ele>164.2</ele>
        <time>2020-03-01T17:07:08Z</time>
      </trkpt>
      <trkpt lat="56.865046645291" lon="14.831008123634">
        <ele>165.2</ele>
        <time>2020-03-01T17:07:13Z</time>
      </trkpt>
      <trkpt lat="56.865116382699" lon="14.8306740211">
        <ele>165</ele>
        <time>2020-03-01T17:07:19Z</time>
      </trkpt>
      <trkpt lat="56.865150580851" lon="14.83050219215">
        <ele>165.4</ele>
        <time>2020-03-01T17:07:22Z</time>
      </trkpt>
      <trkpt lat="56.865168853393" lon="14.830125593383">
        <ele>164.2</ele>
        <time>2020-03-01T17:07:28Z</time>
      </trkpt>
      <trkpt lat="56.865123674952" lon="14.829796855265">
        <ele>163.8</ele>
        <time>2020-03-01T17:07:34Z</time>
      </trkpt>
      <trkpt lat="56.865015045528" lon="14.829496615607">
        <ele>164.2</ele>
        <time>2020-03-01T17:07:40Z</time>
      </trkpt>
      <trkpt lat="56.864935752754" lon="14.829288409211">
        <ele>164.2</ele>
        <time>2020-03-01T17:07:44Z</time>
      </trkpt>
      <trkpt lat="56.864816394498" lon="14.82902781594">
        <ele>164.4</ele>
        <time>2020-03-01T17:07:49Z</time>
      </trkpt>
      <trkpt lat="56.86467541094" lon="14.828732437784">
        <ele>164.8</ele>
        <time>2020-03-01T17:07:55Z</time>
      </trkpt>
      <trkpt lat="56.864542306368" lon="14.828435802343">
        <ele>164.6</ele>
        <time>2020-03-01T17:08:01Z</time>
      </trkpt>
      <trkpt lat="56.864493691348" lon="14.828223824092">
        <ele>165</ele>
        <time>2020-03-01T17:08:05Z</time>
      </trkpt>
      <trkpt lat="56.864525877844" lon="14.828065490001">
        <ele>165.4</ele>
        <time>2020-03-01T17:08:08Z</time>
      </trkpt>
      <trkpt lat="56.864671136171" lon="14.82784848261">
        <ele>166</ele>
        <time>2020-03-01T17:08:14Z</time>
      </trkpt>
      <trkpt lat="56.864742885235" lon="14.827754353873">
        <ele>166.6</ele>
        <time>2020-03-01T17:08:17Z</time>
      </trkpt>
      <trkpt lat="56.864885042259" lon="14.827514128619">
        <ele>166.4</ele>
        <time>2020-03-01T17:08:23Z</time>
      </trkpt>
      <trkpt lat="56.865012782415" lon="14.82726594056">
        <ele>166.4</ele>
        <time>2020-03-01T17:08:29Z</time>
      </trkpt>
      <trkpt lat="56.865160052398" lon="14.827039210165">
        <ele>166</ele>
        <time>2020-03-01T17:08:35Z</time>
      </trkpt>
      <trkpt lat="56.865319727593" lon="14.826850533596">
        <ele>165.8</ele>
        <time>2020-03-01T17:08:41Z</time>
      </trkpt>
      <trkpt lat="56.865347723139" lon="14.826822454231">
        <ele>165.4</ele>
        <time>2020-03-01T17:08:42Z</time>
      </trkpt>
      <trkpt lat="56.865511505465" lon="14.826636208413">
        <ele>165.8</ele>
        <time>2020-03-01T17:08:48Z</time>
      </trkpt>
      <trkpt lat="56.865668833728" lon="14.826378464988">
        <ele>165</ele>
        <time>2020-03-01T17:08:54Z</time>
      </trkpt>
      <trkpt lat="56.865773607478" lon="14.826087864515">
        <ele>165.6</ele>
        <time>2020-03-01T17:08:59Z</time>
      </trkpt>
      <trkpt lat="56.865871927165" lon="14.825794749472">
        <ele>165.4</ele>
        <time>2020-03-01T17:09:04Z</time>
      </trkpt>
      <trkpt lat="56.865980221313" lon="14.825464837888">
        <ele>165.8</ele>
        <time>2020-03-01T17:09:10Z</time>
      </trkpt>
      <trkpt lat="56.866041828278" lon="14.825141799462">
        <ele>166.2</ele>
        <time>2020-03-01T17:09:16Z</time>
      </trkpt>
      <trkpt lat="56.866078708638" lon="14.824786742178">
        <ele>165</ele>
        <time>2020-03-01T17:09:22Z</time>
      </trkpt>
      <trkpt lat="56.866115002265" lon="14.824442497545">
        <ele>164.8</ele>
        <time>2020-03-01T17:09:27Z</time>
      </trkpt>
      <trkpt lat="56.866111398048" lon="14.824316517588">
        <ele>164.4</ele>
        <time>2020-03-01T17:09:29Z</time>
      </trkpt>
      <trkpt lat="56.866096813542" lon="14.823988701479">
        <ele>164.6</ele>
        <time>2020-03-01T17:09:34Z</time>
      </trkpt>
      <trkpt lat="56.866075858792" lon="14.823630123797">
        <ele>163.8</ele>
        <time>2020-03-01T17:09:39Z</time>
      </trkpt>
      <trkpt lat="56.866065046141" lon="14.82351336393">
        <ele>163.2</ele>
        <time>2020-03-01T17:09:41Z</time>
      </trkpt>
      <trkpt lat="56.866030680351" lon="14.823176579188">
        <ele>163.8</ele>
        <time>2020-03-01T17:09:47Z</time>
      </trkpt>
      <trkpt lat="56.865946861351" lon="14.822865862155">
        <ele>164</ele>
        <time>2020-03-01T17:09:52Z</time>
      </trkpt>
      <trkpt lat="56.865856672107" lon="14.822551037991">
        <ele>164</ele>
        <time>2020-03-01T17:09:58Z</time>
      </trkpt>
      <trkpt lat="56.865845943275" lon="14.822498148202">
        <ele>164.4</ele>
        <time>2020-03-01T17:09:59Z</time>
      </trkpt>
      <trkpt lat="56.865765979949" lon="14.82230217938">
        <ele>165.4</ele>
        <time>2020-03-01T17:10:03Z</time>
      </trkpt>
      <trkpt lat="56.86563932944" lon="14.822049465095">
        <ele>164.8</ele>
        <time>2020-03-01T17:10:08Z</time>
      </trkpt>
      <trkpt lat="56.86550102809" lon="14.821814185162">
        <ele>164.6</ele>
        <time>2020-03-01T17:10:13Z</time>
      </trkpt>
      <trkpt lat="56.865413940149" lon="14.821689881585">
        <ele>164.2</ele>
        <time>2020-03-01T17:10:16Z</time>
      </trkpt>
      <trkpt lat="56.865276057894" lon="14.821477903334">
        <ele>164.2</ele>
        <time>2020-03-01T17:10:22Z</time>
      </trkpt>
      <trkpt lat="56.865099367442" lon="14.821338428518">
        <ele>165.2</ele>
        <time>2020-03-01T17:10:28Z</time>
      </trkpt>
      <trkpt lat="56.865066258937" lon="14.821325185116">
        <ele>165.4</ele>
        <time>2020-03-01T17:10:29Z</time>
      </trkpt>
      <trkpt lat="56.864894681444" lon="14.821218315891">
        <ele>165</ele>
        <time>2020-03-01T17:10:35Z</time>
      </trkpt>
      <trkpt lat="56.864716314612" lon="14.821025867467">
        <ele>165.4</ele>
        <time>2020-03-01T17:10:41Z</time>
      </trkpt>
      <trkpt lat="56.864601566401" lon="14.820759825961">
        <ele>164.8</ele>
        <time>2020-03-01T17:10:47Z</time>
      </trkpt>
      <trkpt lat="56.864445830699" lon="14.820505016201">
        <ele>165</ele>
        <time>2020-03-01T17:10:52Z</time>
      </trkpt>
      <trkpt lat="56.86431079829" lon="14.820236543944">
        <ele>164.6</ele>
        <time>2020-03-01T17:10:58Z</time>
      </trkpt>
      <trkpt lat="56.864144585213" lon="14.820010903196">
        <ele>165</ele>
        <time>2020-03-01T17:11:05Z</time>
      </trkpt>
      <trkpt lat="56.863976192842" lon="14.819875367873">
        <ele>165.2</ele>
        <time>2020-03-01T17:11:11Z</time>
      </trkpt>
      <trkpt lat="56.863771758301" lon="14.819816443116">
        <ele>165.8</ele>
        <time>2020-03-01T17:11:17Z</time>
      </trkpt>
      <trkpt lat="56.863588865243" lon="14.819883833592">
        <ele>165.4</ele>
        <time>2020-03-01T17:11:22Z</time>
      </trkpt>
      <trkpt lat="56.86347763743" lon="14.81993093987">
        <ele>164.2</ele>
        <time>2020-03-01T17:11:25Z</time>
      </trkpt>
      <trkpt lat="56.863291643069" lon="14.820013417766">
        <ele>164.6</ele>
        <time>2020-03-01T17:11:30Z</time>
      </trkpt>
      <trkpt lat="56.863220480738" lon="14.820053986162">
        <ele>165.2</ele>
        <time>2020-03-01T17:11:32Z</time>
      </trkpt>
      <trkpt lat="56.863034067282" lon="14.82012204719">
        <ele>165</ele>
        <time>2020-03-01T17:11:38Z</time>
      </trkpt>
      <trkpt lat="56.862834158967" lon="14.820173512056">
        <ele>165.8</ele>
        <time>2020-03-01T17:11:45Z</time>
      </trkpt>
      <trkpt lat="56.862643386923" lon="14.820283231127">
        <ele>165</ele>
        <time>2020-03-01T17:11:52Z</time>
      </trkpt>
      <trkpt lat="56.862470300688" lon="14.820419017907">
        <ele>165.6</ele>
        <time>2020-03-01T17:11:58Z</time>
      </trkpt>
      <trkpt lat="56.862274331866" lon="14.820515325938">
        <ele>166</ele>
        <time>2020-03-01T17:12:05Z</time>
      </trkpt>
      <trkpt lat="56.862241139542" lon="14.820549691728">
        <ele>166</ele>
        <time>2020-03-01T17:12:07Z</time>
      </trkpt>
      <trkpt lat="56.8621139023" lon="14.820781199806">
        <ele>165.4</ele>
        <time>2020-03-01T17:12:13Z</time>
      </trkpt>
      <trkpt lat="56.861932769441" lon="14.820870969955">
        <ele>165.4</ele>
        <time>2020-03-01T17:12:18Z</time>
      </trkpt>
      <trkpt lat="56.861806454208" lon="14.82083869964">
        <ele>165.6</ele>
        <time>2020-03-01T17:12:21Z</time>
      </trkpt>
      <trkpt lat="56.861671757075" lon="14.820587158821">
        <ele>165.6</ele>
        <time>2020-03-01T17:12:26Z</time>
      </trkpt>
      <trkpt lat="56.861631440136" lon="14.82023687922">
        <ele>165.6</ele>
        <time>2020-03-01T17:12:33Z</time>
      </trkpt>
      <trkpt lat="56.86157997527" lon="14.819930269318">
        <ele>166</ele>
        <time>2020-03-01T17:12:37Z</time>
      </trkpt>
      <trkpt lat="56.861558014692" lon="14.819791045959">
        <ele>166.4</ele>
        <time>2020-03-01T17:12:39Z</time>
      </trkpt>
      <trkpt lat="56.861513842079" lon="14.819439425254">
        <ele>166.2</ele>
        <time>2020-03-01T17:12:45Z</time>
      </trkpt>
      <trkpt lat="56.861497581193" lon="14.819111022412">
        <ele>167</ele>
        <time>2020-03-01T17:12:51Z</time>
      </trkpt>
      <trkpt lat="56.861517278658" lon="14.819068777636">
        <ele>167</ele>
        <time>2020-03-01T17:12:52Z</time>
      </trkpt>
      <trkpt lat="56.861576371053" lon="14.819037010235">
        <ele>167.4</ele>
        <time>2020-03-01T17:12:54Z</time>
      </trkpt>
      <trkpt lat="56.861756414265" lon="14.818982527885">
        <ele>166.8</ele>
        <time>2020-03-01T17:13:01Z</time>
      </trkpt>
      <trkpt lat="56.861837718695" lon="14.818951598674">
        <ele>166.2</ele>
        <time>2020-03-01T17:13:04Z</time>
      </trkpt>
      <trkpt lat="56.86201834864" lon="14.818871216253">
        <ele>165.8</ele>
        <time>2020-03-01T17:13:11Z</time>
      </trkpt>
      <trkpt lat="56.862209539779" lon="14.818818745559">
        <ele>165.8</ele>
        <time>2020-03-01T17:13:18Z</time>
      </trkpt>
      <trkpt lat="56.862410286284" lon="14.818765939589">
        <ele>165.4</ele>
        <time>2020-03-01T17:13:25Z</time>
      </trkpt>
      <trkpt lat="56.862606171287" lon="14.818732914903">
        <ele>166.2</ele>
        <time>2020-03-01T17:13:30Z</time>
      </trkpt>
      <trkpt lat="56.86281127638" lon="14.818690837765">
        <ele>165.6</ele>
        <time>2020-03-01T17:13:37Z</time>
      </trkpt>
      <trkpt lat="56.862996348732" lon="14.818686814453">
        <ele>166.4</ele>
        <time>2020-03-01T17:13:42Z</time>
      </trkpt>
      <trkpt lat="56.863202292015" lon="14.818656639613">
        <ele>165.8</ele>
        <time>2020-03-01T17:13:48Z</time>
      </trkpt>
      <trkpt lat="56.863410917506" lon="14.818627973515">
        <ele>166</ele>
        <time>2020-03-01T17:13:53Z</time>
      </trkpt>
      <trkpt lat="56.863606634871" lon="14.818596373752">
        <ele>167.2</ele>
        <time>2020-03-01T17:13:59Z</time>
      </trkpt>
      <trkpt lat="56.863816852923" lon="14.818582627436">
        <ele>167.2</ele>
        <time>2020-03-01T17:14:05Z</time>
      </trkpt>
      <trkpt lat="56.863997399049" lon="14.818595200286">
        <ele>167.6</ele>
        <time>2020-03-01T17:14:10Z</time>
      </trkpt>
      <trkpt lat="56.864183644867" lon="14.818581873065">
        <ele>168.6</ele>
        <time>2020-03-01T17:14:15Z</time>
      </trkpt>
      <trkpt lat="56.864388247046" lon="14.818533258045">
        <ele>169.2</ele>
        <time>2020-03-01T17:14:22Z</time>
      </trkpt>
      <trkpt lat="56.864546832594" lon="14.818518841177">
        <ele>169.6</ele>
        <time>2020-03-01T17:14:27Z</time>
      </trkpt>
      <trkpt lat="56.864733078412" lon="14.81851104601">
        <ele>170.8</ele>
        <time>2020-03-01T17:14:32Z</time>
      </trkpt>
      <trkpt lat="56.86492686794" lon="14.818503753757">
        <ele>171.4</ele>
        <time>2020-03-01T17:14:37Z</time>
      </trkpt>
      <trkpt lat="56.865137840363" lon="14.818481206446">
        <ele>171.4</ele>
        <time>2020-03-01T17:14:43Z</time>
      </trkpt>
      <trkpt lat="56.865227107598" lon="14.818463436818">
        <ele>172.2</ele>
        <time>2020-03-01T17:14:46Z</time>
      </trkpt>
      <trkpt lat="56.865417628185" lon="14.818422784603">
        <ele>173</ele>
        <time>2020-03-01T17:14:52Z</time>
      </trkpt>
      <trkpt lat="56.865616279215" lon="14.818387077709">
        <ele>173.2</ele>
        <time>2020-03-01T17:14:58Z</time>
      </trkpt>
      <trkpt lat="56.865818115367" lon="14.818380372189">
        <ele>173.2</ele>
        <time>2020-03-01T17:15:04Z</time>
      </trkpt>
      <trkpt lat="56.866021376442" lon="14.818330164608">
        <ele>173.2</ele>
        <time>2020-03-01T17:15:11Z</time>
      </trkpt>
      <trkpt lat="56.866201503473" lon="14.818235784414">
        <ele>173.4</ele>
        <time>2020-03-01T17:15:17Z</time>
      </trkpt>
      <trkpt lat="56.866417085941" lon="14.818200412796">
        <ele>173.4</ele>
        <time>2020-03-01T17:15:23Z</time>
      </trkpt>
      <trkpt lat="56.866582628466" lon="14.818158503296">
        <ele>173</ele>
        <time>2020-03-01T17:15:28Z</time>
      </trkpt>
      <trkpt lat="56.86677926784" lon="14.818162694246">
        <ele>173</ele>
        <time>2020-03-01T17:15:34Z</time>
      </trkpt>
      <trkpt lat="56.866954365731" lon="14.818173925992">
        <ele>172.2</ele>
        <time>2020-03-01T17:15:39Z</time>
      </trkpt>
      <trkpt lat="56.867157375349" lon="14.818156156364">
        <ele>172.2</ele>
        <time>2020-03-01T17:15:45Z</time>
      </trkpt>
      <trkpt lat="56.867357954216" lon="14.818094381761">
        <ele>171.2</ele>
        <time>2020-03-01T17:15:51Z</time>
      </trkpt>
      <trkpt lat="56.867444958338" lon="14.8180508797">
        <ele>171.2</ele>
        <time>2020-03-01T17:15:54Z</time>
      </trkpt>
      <trkpt lat="56.867584684611" lon="14.818022884154">
        <ele>170</ele>
        <time>2020-03-01T17:15:58Z</time>
      </trkpt>
      <trkpt lat="56.867791382265" lon="14.818025482543">
        <ele>170</ele>
        <time>2020-03-01T17:16:02Z</time>
      </trkpt>
      <trkpt lat="56.867991374399" lon="14.817898496758">
        <ele>169.4</ele>
        <time>2020-03-01T17:16:08Z</time>
      </trkpt>
      <trkpt lat="56.868080306358" lon="14.817835381051">
        <ele>168.8</ele>
        <time>2020-03-01T17:16:11Z</time>
      </trkpt>
      <trkpt lat="56.868241741752" lon="14.81767537058">
        <ele>168.2</ele>
        <time>2020-03-01T17:16:17Z</time>
      </trkpt>
      <trkpt lat="56.868431675606" lon="14.817631197967">
        <ele>168</ele>
        <time>2020-03-01T17:16:21Z</time>
      </trkpt>
      <trkpt lat="56.86846402974" lon="14.817603118602">
        <ele>167.8</ele>
        <time>2020-03-01T17:16:22Z</time>
      </trkpt>
      <trkpt lat="56.868642145115" lon="14.817462973234">
        <ele>167.4</ele>
        <time>2020-03-01T17:16:28Z</time>
      </trkpt>
      <trkpt lat="56.868834761177" lon="14.817363144805">
        <ele>166.8</ele>
        <time>2020-03-01T17:16:34Z</time>
      </trkpt>
      <trkpt lat="56.86889821216" lon="14.817348225023">
        <ele>166.8</ele>
        <time>2020-03-01T17:16:35Z</time>
      </trkpt>
      <trkpt lat="56.869053025853" lon="14.817275218674">
        <ele>167.8</ele>
        <time>2020-03-01T17:16:40Z</time>
      </trkpt>
      <trkpt lat="56.869223765156" lon="14.817122248999">
        <ele>167.2</ele>
        <time>2020-03-01T17:16:47Z</time>
      </trkpt>
      <trkpt lat="56.869414034286" lon="14.817052846867">
        <ele>167.6</ele>
        <time>2020-03-01T17:16:53Z</time>
      </trkpt>
      <trkpt lat="56.869604638692" lon="14.816999621802">
        <ele>167</ele>
        <time>2020-03-01T17:16:59Z</time>
      </trkpt>
      <trkpt lat="56.869808318862" lon="14.816937092828">
        <ele>168.2</ele>
        <time>2020-03-01T17:17:05Z</time>
      </trkpt>
      <trkpt lat="56.870013926869" lon="14.816890657102">
        <ele>167.8</ele>
        <time>2020-03-01T17:17:11Z</time>
      </trkpt>
      <trkpt lat="56.870220373066" lon="14.816853609104">
        <ele>168.2</ele>
        <time>2020-03-01T17:17:17Z</time>
      </trkpt>
      <trkpt lat="56.87035331" lon="14.816810777595">
        <ele>168.8</ele>
        <time>2020-03-01T17:17:21Z</time>
      </trkpt>
      <trkpt lat="56.870551206659" lon="14.816760318557">
        <ele>169</ele>
        <time>2020-03-01T17:17:27Z</time>
      </trkpt>
      <trkpt lat="56.870758574865" lon="14.816715978306">
        <ele>169.6</ele>
        <time>2020-03-01T17:17:34Z</time>
      </trkpt>
      <trkpt lat="56.870964266691" lon="14.816732909744">
        <ele>169.8</ele>
        <time>2020-03-01T17:17:40Z</time>
      </trkpt>
      <trkpt lat="56.870999051576" lon="14.816736933056">
        <ele>170</ele>
        <time>2020-03-01T17:17:41Z</time>
      </trkpt>
      <trkpt lat="56.871184710661" lon="14.816735591952">
        <ele>170.8</ele>
        <time>2020-03-01T17:17:46Z</time>
      </trkpt>
      <trkpt lat="56.871380176569" lon="14.816711032985">
        <ele>170.4</ele>
        <time>2020-03-01T17:17:52Z</time>
      </trkpt>
      <trkpt lat="56.871562315256" lon="14.816664429621">
        <ele>170.6</ele>
        <time>2020-03-01T17:17:58Z</time>
      </trkpt>
      <trkpt lat="56.871755434232" lon="14.816664429621">
        <ele>171</ele>
        <time>2020-03-01T17:18:04Z</time>
      </trkpt>
      <trkpt lat="56.871789297108" lon="14.816665267811">
        <ele>171.2</ele>
        <time>2020-03-01T17:18:05Z</time>
      </trkpt>
      <trkpt lat="56.871989373061" lon="14.816642636681">
        <ele>170.6</ele>
        <time>2020-03-01T17:18:11Z</time>
      </trkpt>
      <trkpt lat="56.872116945579" lon="14.816606845968">
        <ele>170.2</ele>
        <time>2020-03-01T17:18:15Z</time>
      </trkpt>
      <trkpt lat="56.872295480049" lon="14.816541550967">
        <ele>169.6</ele>
        <time>2020-03-01T17:18:20Z</time>
      </trkpt>
      <trkpt lat="56.872515337286" lon="14.81648933173">
        <ele>169.8</ele>
        <time>2020-03-01T17:18:26Z</time>
      </trkpt>
      <trkpt lat="56.872719939465" lon="14.816427138032">
        <ele>169.6</ele>
        <time>2020-03-01T17:18:32Z</time>
      </trkpt>
      <trkpt lat="56.872929570784" lon="14.816335440046">
        <ele>169</ele>
        <time>2020-03-01T17:18:39Z</time>
      </trkpt>
      <trkpt lat="56.873122438303" lon="14.816268468665">
        <ele>169</ele>
        <time>2020-03-01T17:18:45Z</time>
      </trkpt>
      <trkpt lat="56.873317066021" lon="14.816241562766">
        <ele>168.2</ele>
        <time>2020-03-01T17:18:50Z</time>
      </trkpt>
      <trkpt lat="56.873500545812" lon="14.816147182572">
        <ele>168</ele>
        <time>2020-03-01T17:18:56Z</time>
      </trkpt>
      <trkpt lat="56.873683857965" lon="14.816023214271">
        <ele>167.4</ele>
        <time>2020-03-01T17:19:02Z</time>
      </trkpt>
      <trkpt lat="56.873857363295" lon="14.815903017825">
        <ele>167.4</ele>
        <time>2020-03-01T17:19:07Z</time>
      </trkpt>
      <trkpt lat="56.873920395183" lon="14.81584895457">
        <ele>166.8</ele>
        <time>2020-03-01T17:19:09Z</time>
      </trkpt>
      <trkpt lat="56.874107311553" lon="14.815742923535">
        <ele>166.8</ele>
        <time>2020-03-01T17:19:15Z</time>
      </trkpt>
      <trkpt lat="56.87429364119" lon="14.815586014367">
        <ele>166</ele>
        <time>2020-03-01T17:19:21Z</time>
      </trkpt>
      <trkpt lat="56.874463039389" lon="14.815433799063">
        <ele>166.2</ele>
        <time>2020-03-01T17:19:26Z</time>
      </trkpt>
      <trkpt lat="56.874561191438" lon="14.815375293401">
        <ele>165.8</ele>
        <time>2020-03-01T17:19:29Z</time>
      </trkpt>
      <trkpt lat="56.874746599066" lon="14.815207990677">
        <ele>165.2</ele>
        <time>2020-03-01T17:19:35Z</time>
      </trkpt>
      <trkpt lat="56.874899904017" lon="14.815026522542">
        <ele>165.4</ele>
        <time>2020-03-01T17:19:40Z</time>
      </trkpt>
      <trkpt lat="56.875054298615" lon="14.814786716383">
        <ele>165.2</ele>
        <time>2020-03-01T17:19:46Z</time>
      </trkpt>
      <trkpt lat="56.875189414843" lon="14.814523189447">
        <ele>165.6</ele>
        <time>2020-03-01T17:19:52Z</time>
      </trkpt>
      <trkpt lat="56.875284800865" lon="14.814362508424">
        <ele>164.8</ele>
        <time>2020-03-01T17:19:56Z</time>
      </trkpt>
      <trkpt lat="56.875402818017" lon="14.814074171064">
        <ele>165.2</ele>
        <time>2020-03-01T17:20:02Z</time>
      </trkpt>
      <trkpt lat="56.875505580111" lon="14.813756329416">
        <ele>164.8</ele>
        <time>2020-03-01T17:20:08Z</time>
      </trkpt>
      <trkpt lat="56.875583280324" lon="14.813425160547">
        <ele>164.8</ele>
        <time>2020-03-01T17:20:14Z</time>
      </trkpt>
      <trkpt lat="56.875651928085" lon="14.813094494592">
        <ele>164.2</ele>
        <time>2020-03-01T17:20:20Z</time>
      </trkpt>
      <trkpt lat="56.875670284446" lon="14.812972118852">
        <ele>163.6</ele>
        <time>2020-03-01T17:20:22Z</time>
      </trkpt>
      <trkpt lat="56.875713618869" lon="14.812611948609">
        <ele>164</ele>
        <time>2020-03-01T17:20:28Z</time>
      </trkpt>
      <trkpt lat="56.875740608587" lon="14.812278516627">
        <ele>164</ele>
        <time>2020-03-01T17:20:33Z</time>
      </trkpt>
      <trkpt lat="56.875741446777" lon="14.81189605053">
        <ele>163.4</ele>
        <time>2020-03-01T17:20:39Z</time>
      </trkpt>
      <trkpt lat="56.875739183664" lon="14.811543926911">
        <ele>164</ele>
        <time>2020-03-01T17:20:45Z</time>
      </trkpt>
      <trkpt lat="56.875728203375" lon="14.811186355057">
        <ele>163.6</ele>
        <time>2020-03-01T17:20:51Z</time>
      </trkpt>
      <trkpt lat="56.87573868075" lon="14.810806738806">
        <ele>164.2</ele>
        <time>2020-03-01T17:20:57Z</time>
      </trkpt>
      <trkpt lat="56.875776231662" lon="14.810445478916">
        <ele>163.6</ele>
        <time>2020-03-01T17:21:03Z</time>
      </trkpt>
      <trkpt lat="56.875796264403" lon="14.810098552075">
        <ele>164</ele>
        <time>2020-03-01T17:21:09Z</time>
      </trkpt>
      <trkpt lat="56.875792827824" lon="14.810063599552">
        <ele>164</ele>
        <time>2020-03-01T17:21:10Z</time>
      </trkpt>
      <trkpt lat="56.875611192051" lon="14.809953293748">
        <ele>164.2</ele>
        <time>2020-03-01T17:21:16Z</time>
      </trkpt>
      <trkpt lat="56.875498204039" lon="14.809917000121">
        <ele>164.6</ele>
        <time>2020-03-01T17:21:19Z</time>
      </trkpt>
      <trkpt lat="56.875343809441" lon="14.80981650114">
        <ele>165.8</ele>
        <time>2020-03-01T17:21:24Z</time>
      </trkpt>
      <trkpt lat="56.875181619676" lon="14.809649366054">
        <ele>166</ele>
        <time>2020-03-01T17:21:30Z</time>
      </trkpt>
      <trkpt lat="56.875003085206" lon="14.809545095218">
        <ele>166.4</ele>
        <time>2020-03-01T17:21:37Z</time>
      </trkpt>
      <trkpt lat="56.87480828985" lon="14.809484326443">
        <ele>166.2</ele>
        <time>2020-03-01T17:21:43Z</time>
      </trkpt>
      <trkpt lat="56.874609387363" lon="14.809411320094">
        <ele>166.4</ele>
        <time>2020-03-01T17:21:49Z</time>
      </trkpt>
      <trkpt lat="56.874396319465" lon="14.809354993726">
        <ele>166</ele>
        <time>2020-03-01T17:21:56Z</time>
      </trkpt>
      <trkpt lat="56.874201859385" lon="14.809334206614">
        <ele>166.2</ele>
        <time>2020-03-01T17:22:02Z</time>
      </trkpt>
      <trkpt lat="56.87400027469" lon="14.8093001761">
        <ele>166.2</ele>
        <time>2020-03-01T17:22:08Z</time>
      </trkpt>
      <trkpt lat="56.873821907858" lon="14.809256674039">
        <ele>165.6</ele>
        <time>2020-03-01T17:22:13Z</time>
      </trkpt>
      <trkpt lat="56.873639266257" lon="14.809214345444">
        <ele>165.4</ele>
        <time>2020-03-01T17:22:19Z</time>
      </trkpt>
      <trkpt lat="56.873452517525" lon="14.809118205051">
        <ele>165.2</ele>
        <time>2020-03-01T17:22:25Z</time>
      </trkpt>
      <trkpt lat="56.873246238966" lon="14.809052742412">
        <ele>165.2</ele>
        <time>2020-03-01T17:22:32Z</time>
      </trkpt>
      <trkpt lat="56.87317465754" lon="14.809044109055">
        <ele>164.6</ele>
        <time>2020-03-01T17:22:34Z</time>
      </trkpt>
      <trkpt lat="56.872999056735" lon="14.808902538764">
        <ele>164.4</ele>
        <time>2020-03-01T17:22:40Z</time>
      </trkpt>
      <trkpt lat="56.872843907766" lon="14.808718723697">
        <ele>164.8</ele>
        <time>2020-03-01T17:22:45Z</time>
      </trkpt>
      <trkpt lat="56.872700158181" lon="14.808473636941">
        <ele>164</ele>
        <time>2020-03-01T17:22:51Z</time>
      </trkpt>
      <trkpt lat="56.872590942024" lon="14.808242547958">
        <ele>163.6</ele>
        <time>2020-03-01T17:22:56Z</time>
      </trkpt>
      <trkpt lat="56.87248817993" lon="14.807953707684">
        <ele>163.8</ele>
        <time>2020-03-01T17:23:02Z</time>
      </trkpt>
      <trkpt lat="56.872450293742" lon="14.807796882335">
        <ele>164.6</ele>
        <time>2020-03-01T17:23:05Z</time>
      </trkpt>
      <trkpt lat="56.872381897438" lon="14.807485578569">
        <ele>164.6</ele>
        <time>2020-03-01T17:23:11Z</time>
      </trkpt>
      <trkpt lat="56.872285254131" lon="14.807159774116">
        <ele>165</ele>
        <time>2020-03-01T17:23:17Z</time>
      </trkpt>
      <trkpt lat="56.872167739893" lon="14.806863473951">
        <ele>164.8</ele>
        <time>2020-03-01T17:23:23Z</time>
      </trkpt>
      <trkpt lat="56.872048549275" lon="14.806566587053">
        <ele>163.8</ele>
        <time>2020-03-01T17:23:29Z</time>
      </trkpt>
      <trkpt lat="56.871899854369" lon="14.806309095085">
        <ele>164.4</ele>
        <time>2020-03-01T17:23:35Z</time>
      </trkpt>
      <trkpt lat="56.871755518051" lon="14.806109438227">
        <ele>164.2</ele>
        <time>2020-03-01T17:23:40Z</time>
      </trkpt>
      <trkpt lat="56.871671615232" lon="14.806005921762">
        <ele>163.4</ele>
        <time>2020-03-01T17:23:43Z</time>
      </trkpt>
      <trkpt lat="56.871504312508" lon="14.805791931855">
        <ele>163.4</ele>
        <time>2020-03-01T17:23:49Z</time>
      </trkpt>
      <trkpt lat="56.871360143828" lon="14.80552496834">
        <ele>163.4</ele>
        <time>2020-03-01T17:23:55Z</time>
      </trkpt>
      <trkpt lat="56.871234834423" lon="14.805227746166">
        <ele>163.2</ele>
        <time>2020-03-01T17:24:01Z</time>
      </trkpt>
      <trkpt lat="56.871094437598" lon="14.804947874525">
        <ele>163.4</ele>
        <time>2020-03-01T17:24:07Z</time>
      </trkpt>
      <trkpt lat="56.870963596139" lon="14.804667248513">
        <ele>164</ele>
        <time>2020-03-01T17:24:13Z</time>
      </trkpt>
      <trkpt lat="56.870796377234" lon="14.804426687983">
        <ele>164</ele>
        <time>2020-03-01T17:24:19Z</time>
      </trkpt>
      <trkpt lat="56.870654806943" lon="14.804210937877">
        <ele>163.2</ele>
        <time>2020-03-01T17:24:24Z</time>
      </trkpt>
      <trkpt lat="56.870526647692" lon="14.803940286326">
        <ele>163</ele>
        <time>2020-03-01T17:24:30Z</time>
      </trkpt>
      <trkpt lat="56.870413827318" lon="14.803642561238">
        <ele>163.6</ele>
        <time>2020-03-01T17:24:36Z</time>
      </trkpt>
      <trkpt lat="56.870279968375" lon="14.803359755932">
        <ele>164.2</ele>
        <time>2020-03-01T17:24:42Z</time>
      </trkpt>
      <trkpt lat="56.870166225992" lon="14.803054654772">
        <ele>164.6</ele>
        <time>2020-03-01T17:24:48Z</time>
      </trkpt>
      <trkpt lat="56.870039072569" lon="14.80281677645">
        <ele>164</ele>
        <time>2020-03-01T17:24:54Z</time>
      </trkpt>
      <trkpt lat="56.869946033479" lon="14.802756510589">
        <ele>163.2</ele>
        <time>2020-03-01T17:24:57Z</time>
      </trkpt>
      <trkpt lat="56.869758111281" lon="14.802641427102">
        <ele>164</ele>
        <time>2020-03-01T17:25:03Z</time>
      </trkpt>
      <trkpt lat="56.869697761601" lon="14.8026198018">
        <ele>164.4</ele>
        <time>2020-03-01T17:25:05Z</time>
      </trkpt>
      <trkpt lat="56.869550407799" lon="14.802368847714">
        <ele>164</ele>
        <time>2020-03-01T17:25:11Z</time>
      </trkpt>
      <trkpt lat="56.869441275461" lon="14.802045306374">
        <ele>164.6</ele>
        <time>2020-03-01T17:25:17Z</time>
      </trkpt>
      <trkpt lat="56.869336082616" lon="14.801726794174">
        <ele>164.8</ele>
        <time>2020-03-01T17:25:23Z</time>
      </trkpt>
      <trkpt lat="56.869245139001" lon="14.801405515947">
        <ele>164</ele>
        <time>2020-03-01T17:25:29Z</time>
      </trkpt>
      <trkpt lat="56.869168360797" lon="14.80110519247">
        <ele>164.6</ele>
        <time>2020-03-01T17:25:35Z</time>
      </trkpt>
      <trkpt lat="56.869076578992" lon="14.80079422398">
        <ele>165.2</ele>
        <time>2020-03-01T17:25:41Z</time>
      </trkpt>
      <trkpt lat="56.868978594581" lon="14.800451823365">
        <ele>164.6</ele>
        <time>2020-03-01T17:25:47Z</time>
      </trkpt>
      <trkpt lat="56.868889411165" lon="14.800135490459">
        <ele>164.4</ele>
        <time>2020-03-01T17:25:52Z</time>
      </trkpt>
      <trkpt lat="56.868833084797" lon="14.799776409863">
        <ele>165.8</ele>
        <time>2020-03-01T17:25:58Z</time>
      </trkpt>
      <trkpt lat="56.868814896074" lon="14.799430824126">
        <ele>165</ele>
        <time>2020-03-01T17:26:04Z</time>
      </trkpt>
      <trkpt lat="56.868810788943" lon="14.799079873973">
        <ele>165.6</ele>
        <time>2020-03-01T17:26:10Z</time>
      </trkpt>
      <trkpt lat="56.868813052056" lon="14.798742753955">
        <ele>166.2</ele>
        <time>2020-03-01T17:26:16Z</time>
      </trkpt>
      <trkpt lat="56.868804167242" lon="14.798705538319">
        <ele>166</ele>
        <time>2020-03-01T17:26:17Z</time>
      </trkpt>
      <trkpt lat="56.868625548953" lon="14.798594310506">
        <ele>165.2</ele>
        <time>2020-03-01T17:26:23Z</time>
      </trkpt>
      <trkpt lat="56.868412313417" lon="14.798517867578">
        <ele>165.8</ele>
        <time>2020-03-01T17:26:29Z</time>
      </trkpt>
      <trkpt lat="56.868222882477" lon="14.79846489397">
        <ele>165.8</ele>
        <time>2020-03-01T17:26:34Z</time>
      </trkpt>
      <trkpt lat="56.868144511712" lon="14.798175969877">
        <ele>166.2</ele>
        <time>2020-03-01T17:26:40Z</time>
      </trkpt>
      <trkpt lat="56.868161275512" lon="14.797821247869">
        <ele>165.6</ele>
        <time>2020-03-01T17:26:46Z</time>
      </trkpt>
      <trkpt lat="56.868204274659" lon="14.797478176702">
        <ele>166</ele>
        <time>2020-03-01T17:26:52Z</time>
      </trkpt>
      <trkpt lat="56.868298654853" lon="14.79713887739">
        <ele>166.8</ele>
        <time>2020-03-01T17:26:58Z</time>
      </trkpt>
      <trkpt lat="56.868351209366" lon="14.796785245029">
        <ele>165.6</ele>
        <time>2020-03-01T17:27:04Z</time>
      </trkpt>
      <trkpt lat="56.86842128205" lon="14.796454662893">
        <ele>166.6</ele>
        <time>2020-03-01T17:27:10Z</time>
      </trkpt>
      <trkpt lat="56.868468304509" lon="14.796300352114">
        <ele>166.8</ele>
        <time>2020-03-01T17:27:13Z</time>
      </trkpt>
      <trkpt lat="56.868530079112" lon="14.795949401961">
        <ele>166.2</ele>
        <time>2020-03-01T17:27:19Z</time>
      </trkpt>
      <trkpt lat="56.868552123509" lon="14.795844795849">
        <ele>165.8</ele>
        <time>2020-03-01T17:27:21Z</time>
      </trkpt>
      <trkpt lat="56.868643821495" lon="14.795519242853">
        <ele>166</ele>
        <time>2020-03-01T17:27:27Z</time>
      </trkpt>
      <trkpt lat="56.868730155065" lon="14.795201568843">
        <ele>165.8</ele>
        <time>2020-03-01T17:27:33Z</time>
      </trkpt>
      <trkpt lat="56.868777848076" lon="14.794882637548">
        <ele>165.8</ele>
        <time>2020-03-01T17:27:38Z</time>
      </trkpt>
      <trkpt lat="56.868865438931" lon="14.794554486163">
        <ele>166.4</ele>
        <time>2020-03-01T17:27:44Z</time>
      </trkpt>
      <trkpt lat="56.868949760845" lon="14.794219880715">
        <ele>165.2</ele>
        <time>2020-03-01T17:27:50Z</time>
      </trkpt>
      <trkpt lat="56.868986557386" lon="14.793865074888">
        <ele>165.6</ele>
        <time>2020-03-01T17:27:56Z</time>
      </trkpt>
      <trkpt lat="56.869004494652" lon="14.793507419215">
        <ele>166</ele>
        <time>2020-03-01T17:28:02Z</time>
      </trkpt>
      <trkpt lat="56.869033244569" lon="14.793346402916">
        <ele>166.2</ele>
        <time>2020-03-01T17:28:05Z</time>
      </trkpt>
      <trkpt lat="56.869107592022" lon="14.79333098022">
        <ele>166.2</ele>
        <time>2020-03-01T17:28:07Z</time>
      </trkpt>
      <trkpt lat="56.869292915831" lon="14.793513118907">
        <ele>166.2</ele>
        <time>2020-03-01T17:28:12Z</time>
      </trkpt>
      <trkpt lat="56.869455524691" lon="14.79369475468">
        <ele>166.6</ele>
        <time>2020-03-01T17:28:17Z</time>
      </trkpt>
      <trkpt lat="56.869514365629" lon="14.793759379129">
        <ele>166.8</ele>
        <time>2020-03-01T17:28:19Z</time>
      </trkpt>
      <trkpt lat="56.869605895977" lon="14.793790140702">
        <ele>167</ele>
        <time>2020-03-01T17:28:22Z</time>
      </trkpt>
      <trkpt lat="56.869704886216" lon="14.793485793913">
        <ele>167.8</ele>
        <time>2020-03-01T17:28:28Z</time>
      </trkpt>
      <trkpt lat="56.869715950324" lon="14.793424773681">
        <ele>168</ele>
        <time>2020-03-01T17:28:29Z</time>
      </trkpt>
      <trkpt lat="56.869801613342" lon="14.793080109953">
        <ele>168.6</ele>
        <time>2020-03-01T17:28:35Z</time>
      </trkpt>
      <trkpt lat="56.86988140903" lon="14.792773080956">
        <ele>168.8</ele>
        <time>2020-03-01T17:28:41Z</time>
      </trkpt>
      <trkpt lat="56.86991996577" lon="14.792695129286">
        <ele>169</ele>
        <time>2020-03-01T17:28:43Z</time>
      </trkpt>
      <trkpt lat="56.870031780316" lon="14.792493209315">
        <ele>168.4</ele>
        <time>2020-03-01T17:28:48Z</time>
      </trkpt>
      <trkpt lat="56.870223893464" lon="14.792602090196">
        <ele>168.6</ele>
        <time>2020-03-01T17:28:53Z</time>
      </trkpt>
      <trkpt lat="56.870408714359" lon="14.792691608888">
        <ele>169.6</ele>
        <time>2020-03-01T17:28:58Z</time>
      </trkpt>
      <trkpt lat="56.870592110331" lon="14.792749695455">
        <ele>170</ele>
        <time>2020-03-01T17:29:03Z</time>
      </trkpt>
      <trkpt lat="56.870627146673" lon="14.79276101102">
        <ele>170.2</ele>
        <time>2020-03-01T17:29:04Z</time>
      </trkpt>
      <trkpt lat="56.87080006527" lon="14.792840806708">
        <ele>171.4</ele>
        <time>2020-03-01T17:29:09Z</time>
      </trkpt>
      <trkpt lat="56.870956555343" lon="14.79293200178">
        <ele>172.4</ele>
        <time>2020-03-01T17:29:14Z</time>
      </trkpt>
      <trkpt lat="56.871132742881" lon="14.793026549612">
        <ele>171.4</ele>
        <time>2020-03-01T17:29:20Z</time>
      </trkpt>
      <trkpt lat="56.871312366998" lon="14.793099388323">
        <ele>172</ele>
        <time>2020-03-01T17:29:25Z</time>
      </trkpt>
      <trkpt lat="56.871496098246" lon="14.793141633099">
        <ele>171.8</ele>
        <time>2020-03-01T17:29:30Z</time>
      </trkpt>
      <trkpt lat="56.871672788698" lon="14.793076589555">
        <ele>172.6</ele>
        <time>2020-03-01T17:29:35Z</time>
      </trkpt>
      <trkpt lat="56.871841432526" lon="14.792939964585">
        <ele>173.2</ele>
        <time>2020-03-01T17:29:40Z</time>
      </trkpt>
      <trkpt lat="56.872030360552" lon="14.792865700951">
        <ele>172.8</ele>
        <time>2020-03-01T17:29:46Z</time>
      </trkpt>
      <trkpt lat="56.872164219495" lon="14.792849942979">
        <ele>173.4</ele>
        <time>2020-03-01T17:29:50Z</time>
      </trkpt>
      <trkpt lat="56.872370665692" lon="14.792869808082">
        <ele>173.2</ele>
        <time>2020-03-01T17:29:56Z</time>
      </trkpt>
      <trkpt lat="56.872563197935" lon="14.792951363969">
        <ele>172.4</ele>
        <time>2020-03-01T17:30:02Z</time>
      </trkpt>
      <trkpt lat="56.872756652187" lon="14.792895624334">
        <ele>172.8</ele>
        <time>2020-03-01T17:30:08Z</time>
      </trkpt>
      <trkpt lat="56.872960751452" lon="14.792771404576">
        <ele>173.4</ele>
        <time>2020-03-01T17:30:14Z</time>
      </trkpt>
      <trkpt lat="56.873149679478" lon="14.792780373209">
        <ele>172.4</ele>
        <time>2020-03-01T17:30:19Z</time>
      </trkpt>
      <trkpt lat="56.873272558132" lon="14.792805351271">
        <ele>172.6</ele>
        <time>2020-03-01T17:30:23Z</time>
      </trkpt>
    </trkseg>
  </trk>
</gpx>